createdAt,value
2022-08-05T00:00:33.354Z,99413.78
2022-08-05T00:03:48.956Z,99420.50
2022-08-05T00:06:51.919Z,99435.56
2022-08-05T00:09:53.565Z,99439.28
2022-08-05T00:12:57.079Z,99437.66
2022-08-05T00:16:00.257Z,99442.53
2022-08-05T00:19:02.054Z,99434.22
2022-08-05T00:22:04.528Z,99440.06
2022-08-05T00:25:08.429Z,99438.81
2022-08-05T00:28:15.550Z,99435.00
2022-08-05T00:31:53.986Z,99436.34
2022-08-05T00:35:04.654Z,99432.66
2022-08-05T00:38:09.441Z,99427.28
2022-08-05T00:41:11.762Z,99429.34
2022-08-05T00:44:13.734Z,99424.19
2022-08-05T00:47:16.421Z,99413.94
2022-08-05T00:50:18.050Z,99422.25
2022-08-05T00:54:00.133Z,99417.09
2022-08-05T00:56:51.262Z,99398.00
2022-08-05T00:59:53.783Z,99393.84
2022-08-05T01:02:57.144Z,99391.91
2022-08-05T01:05:58.766Z,99399.56
2022-08-05T01:09:00.541Z,99390.53
2022-08-05T01:12:18.855Z,99403.66
2022-08-05T01:15:36.424Z,99400.84
2022-08-05T01:18:42.580Z,99404.44
2022-08-05T01:21:54.735Z,99415.84
2022-08-05T01:25:19.750Z,99414.66
2022-08-05T01:28:46.426Z,99410.81
2022-08-05T01:31:52.682Z,99405.53
2022-08-05T01:35:00.662Z,99411.47
2022-08-05T01:38:04.346Z,99405.00
2022-08-05T01:41:07.777Z,99406.09
2022-08-05T01:44:11.185Z,99409.31
2022-08-05T01:47:19.717Z,99413.28
2022-08-05T01:50:32.669Z,99414.38
2022-08-05T01:53:57.643Z,99419.38
2022-08-05T01:58:12.975Z,99423.53
2022-08-05T02:00:21.003Z,99421.50
2022-08-05T02:03:36.209Z,99433.16
2022-08-05T02:06:39.477Z,99441.25
2022-08-05T02:09:41.153Z,99449.91
2022-08-05T02:12:56.394Z,99458.50
2022-08-05T02:16:04.640Z,99465.78
2022-08-05T02:19:16.027Z,99465.38
2022-08-05T02:22:30.893Z,99466.66
2022-08-05T02:25:49.246Z,99464.78
2022-08-05T02:28:54.675Z,99447.72
2022-08-05T02:32:00.688Z,99429.09
2022-08-05T02:35:14.179Z,99425.53
2022-08-05T02:38:19.272Z,99414.22
2022-08-05T02:41:23.768Z,99406.31
2022-08-05T02:44:34.155Z,99416.13
2022-08-05T02:48:06.791Z,99428.69
2022-08-05T02:51:02.972Z,99429.50
2022-08-05T02:54:06.093Z,99409.88
2022-08-05T02:58:20.175Z,99409.44
2022-08-05T03:00:41.127Z,99409.50
2022-08-05T03:04:08.897Z,99400.47
2022-08-05T03:07:17.551Z,99393.72
2022-08-05T03:10:36.339Z,99387.63
2022-08-05T03:13:51.768Z,99393.97
2022-08-05T03:17:00.675Z,99393.41
2022-08-05T03:20:02.435Z,99405.25
2022-08-05T03:23:08.068Z,99414.59
2022-08-05T03:26:31.391Z,99426.19
2022-08-05T03:29:44.813Z,99434.56
2022-08-05T03:32:55.327Z,99446.81
2022-08-05T03:35:58.162Z,99458.38
2022-08-05T03:39:07.478Z,99456.13
2022-08-05T03:42:09.506Z,99464.47
2022-08-05T03:45:22.677Z,99464.22
2022-08-05T03:48:29.241Z,99466.16
2022-08-05T03:52:39.424Z,99476.81
2022-08-05T03:56:05.845Z,99495.97
2022-08-05T03:58:31.395Z,99508.69
2022-08-05T04:01:37.600Z,99528.31
2022-08-05T04:04:40.931Z,99547.09
2022-08-05T04:07:57.563Z,99564.38
2022-08-05T04:11:02.375Z,99595.50
2022-08-05T04:14:04.854Z,99622.53
2022-08-05T04:17:09.039Z,99655.44
2022-08-05T04:20:21.636Z,99675.03
2022-08-05T04:24:00.266Z,99673.28
2022-08-05T04:26:47.867Z,99682.03
2022-08-05T04:29:49.352Z,99708.53
2022-08-05T04:32:50.902Z,99708.97
2022-08-05T04:36:11.161Z,99705.38
2022-08-05T04:39:14.045Z,99713.94
2022-08-05T04:42:15.548Z,99717.34
2022-08-05T04:45:31.135Z,99723.47
2022-08-05T04:48:38.769Z,99724.75
2022-08-05T04:51:44.284Z,99733.81
2022-08-05T04:54:45.844Z,99734.44
2022-08-05T04:57:53.772Z,99739.41
2022-08-05T05:00:55.958Z,99732.06
2022-08-05T05:03:57.473Z,99728.75
2022-08-05T05:06:58.948Z,99734.69
2022-08-05T05:10:04.468Z,99752.94
2022-08-05T05:13:06.079Z,99756.09
2022-08-05T05:16:08.023Z,99740.38
2022-08-05T05:19:19.355Z,99734.28
2022-08-05T05:22:26.441Z,99744.50
2022-08-05T05:25:32.704Z,99748.59
2022-08-05T05:28:42.789Z,99743.88
2022-08-05T05:31:46.689Z,99734.34
2022-08-05T05:34:48.198Z,99721.75
2022-08-05T05:38:02.145Z,99721.41
2022-08-05T05:41:03.963Z,99721.72
2022-08-05T05:44:27.008Z,99715.34
2022-08-05T05:48:06.140Z,99725.38
2022-08-05T05:50:52.977Z,99712.34
2022-08-05T05:53:58.873Z,99708.22
2022-08-05T05:57:01.204Z,99692.44
2022-08-05T06:00:10.221Z,99691.16
2022-08-05T06:03:39.803Z,99697.78
2022-08-05T06:06:36.861Z,99705.19
2022-08-05T06:10:01.440Z,99713.38
2022-08-05T06:13:05.244Z,99733.31
2022-08-05T06:16:29.706Z,99745.28
2022-08-05T06:19:34.487Z,99753.63
2022-08-05T06:22:37.487Z,99762.03
2022-08-05T06:26:12.789Z,99760.28
2022-08-05T06:29:06.455Z,99755.53
2022-08-05T06:32:28.900Z,99766.78
2022-08-05T06:36:07.252Z,99763.09
2022-08-05T06:38:54.666Z,99749.06
2022-08-05T06:41:58.899Z,99758.28
2022-08-05T06:45:05.472Z,99766.84
2022-08-05T06:48:36.208Z,99767.66
2022-08-05T06:51:31.808Z,99772.41
2022-08-05T06:54:33.376Z,99778.66
2022-08-05T06:58:02.677Z,99773.72
2022-08-05T07:01:03.278Z,99774.28
2022-08-05T07:04:04.779Z,99785.22
2022-08-05T07:07:07.917Z,99784.25
2022-08-05T07:10:10.436Z,99779.34
2022-08-05T07:13:57.201Z,99783.03
2022-08-05T07:18:08.487Z,99785.56
2022-08-05T07:20:33.510Z,99785.97
2022-08-05T07:23:37.377Z,99790.56
2022-08-05T07:26:52.078Z,99785.97
2022-08-05T07:30:25.574Z,99770.53
2022-08-05T07:33:16.850Z,99773.72
2022-08-05T07:36:20.595Z,99755.28
2022-08-05T07:39:24.873Z,99738.09
2022-08-05T07:42:44.748Z,99744.78
2022-08-05T07:45:57.014Z,99741.84
2022-08-05T07:49:05.430Z,99735.19
2022-08-05T07:52:07.824Z,99719.06
2022-08-05T07:55:44.633Z,99722.31
2022-08-05T07:58:57.179Z,99715.19
2022-08-05T08:01:57.656Z,99709.91
2022-08-05T08:05:00.429Z,99715.84
2022-08-05T08:08:02.053Z,99709.97
2022-08-05T08:11:03.444Z,99695.41
2022-08-05T08:14:10.296Z,99695.88
2022-08-05T08:17:19.668Z,99689.38
2022-08-05T08:20:43.944Z,99675.50
2022-08-05T08:24:01.409Z,99668.91
2022-08-05T08:27:07.585Z,99662.91
2022-08-05T08:30:30.111Z,99666.94
2022-08-05T08:33:35.950Z,99670.63
2022-08-05T08:36:47.703Z,99668.44
2022-08-05T08:39:54.150Z,99658.06
2022-08-05T08:42:56.821Z,99662.88
2022-08-05T08:45:59.899Z,99651.78
2022-08-05T08:50:12.881Z,99647.97
2022-08-05T08:52:32.058Z,99643.38
2022-08-05T08:56:04.643Z,99642.13
2022-08-05T08:58:59.308Z,99653.09
2022-08-05T09:02:08.598Z,99648.56
2022-08-05T09:05:17.493Z,99652.66
2022-08-05T09:08:20.111Z,99649.00
2022-08-05T09:11:52.170Z,99662.34
2022-08-05T09:14:57.859Z,99642.13
2022-08-05T09:18:01.433Z,99658.22
2022-08-05T09:21:05.615Z,99661.00
2022-08-05T09:24:13.558Z,99666.69
2022-08-05T09:28:03.799Z,99665.88
2022-08-05T09:31:00.919Z,99670.47
2022-08-05T09:34:19.649Z,99674.63
2022-08-05T09:38:17.302Z,99675.19
2022-08-05T09:40:53.564Z,99668.56
2022-08-05T09:43:55.588Z,99667.97
2022-08-05T09:47:12.715Z,99661.03
2022-08-05T09:50:38.089Z,99674.59
2022-08-05T09:53:53.633Z,99672.78
2022-08-05T09:56:57.818Z,99668.09
2022-08-05T10:00:13.205Z,99660.69
2022-08-05T10:03:15.602Z,99660.41
2022-08-05T10:06:20.746Z,99658.84
2022-08-05T10:09:27.523Z,99659.38
2022-08-05T10:12:33.785Z,99652.91
2022-08-05T10:15:41.429Z,99653.63
2022-08-05T10:18:43.560Z,99650.22
2022-08-05T10:21:50.651Z,99660.41
2022-08-05T10:24:52.576Z,99658.94
2022-08-05T10:28:13.080Z,99652.38
2022-08-05T10:32:53.046Z,99657.78
2022-08-05T10:34:40.874Z,99655.59
2022-08-05T10:37:45.029Z,99660.78
2022-08-05T10:40:49.857Z,99658.53
2022-08-05T10:43:59.528Z,99650.34
2022-08-05T10:47:26.506Z,99650.00
2022-08-05T10:50:37.037Z,99644.38
2022-08-05T10:53:45.377Z,99644.41
2022-08-05T10:56:52.810Z,99632.81
2022-08-05T11:00:13.376Z,99636.25
2022-08-05T11:03:23.162Z,99629.31
2022-08-05T11:06:31.166Z,99631.63
2022-08-05T11:09:51.583Z,99635.66
2022-08-05T11:13:06.831Z,99636.19
2022-08-05T11:16:33.786Z,99639.94
2022-08-05T11:20:17.309Z,99639.66
2022-08-05T11:24:04.679Z,99634.84
2022-08-05T11:27:29.240Z,99629.03
2022-08-05T11:30:58.324Z,99629.28
2022-08-05T11:34:02.476Z,99639.34
2022-08-05T11:37:55.156Z,99634.63
2022-08-05T11:41:00.791Z,99634.69
2022-08-05T11:44:12.774Z,99626.75
2022-08-05T11:47:48.611Z,99631.19
2022-08-05T11:50:59.984Z,99624.34
2022-08-05T11:54:01.868Z,99634.91
2022-08-05T11:57:07.557Z,99628.59
2022-08-05T12:00:27.650Z,99628.00
2022-08-05T12:03:31.931Z,99620.44
2022-08-05T12:06:35.654Z,99619.84
2022-08-05T12:09:53.138Z,99626.56
2022-08-05T12:13:03.034Z,99621.56
2022-08-05T12:16:15.518Z,99616.63
2022-08-05T12:20:17.189Z,99618.63
2022-08-05T12:22:39.838Z,99613.72
2022-08-05T12:25:50.601Z,99619.13
2022-08-05T12:28:52.587Z,99615.22
2022-08-05T12:31:57.065Z,99612.66
2022-08-05T12:34:58.767Z,99612.69
2022-08-05T12:38:07.168Z,99613.66
2022-08-05T12:41:14.176Z,99616.09
2022-08-05T12:44:28.432Z,99616.56
2022-08-05T12:47:35.580Z,99619.22
2022-08-05T12:50:37.078Z,99608.16
2022-08-05T12:53:47.442Z,99610.03
2022-08-05T12:56:59.719Z,99621.69
2022-08-05T13:01:58.424Z,99609.25
2022-08-05T13:03:24.327Z,99619.00
2022-08-05T13:06:33.890Z,99609.97
2022-08-05T13:09:35.374Z,99609.75
2022-08-05T13:12:42.505Z,99610.16
2022-08-05T13:15:54.434Z,99624.31
2022-08-05T13:18:58.475Z,99613.47
2022-08-05T13:22:00.524Z,99605.16
2022-08-05T13:25:19.456Z,99612.59
2022-08-05T13:28:23.428Z,99625.34
2022-08-05T13:32:02.786Z,99623.84
2022-08-05T13:34:47.844Z,99629.16
2022-08-05T13:37:55.493Z,99624.81
2022-08-05T13:40:57.506Z,99629.56
2022-08-05T13:43:59.251Z,99625.59
2022-08-05T13:47:05.186Z,99628.78
2022-08-05T13:50:16.237Z,99627.94
2022-08-05T13:53:18.372Z,99633.97
2022-08-05T13:56:20.269Z,99636.84
2022-08-05T13:59:27.345Z,99636.94
2022-08-05T14:02:32.067Z,99639.41
2022-08-05T14:06:04.635Z,99645.63
2022-08-05T14:08:56.135Z,99648.84
2022-08-05T14:12:17.215Z,99653.66
2022-08-05T14:16:08.520Z,99668.53
2022-08-05T14:18:41.529Z,99654.69
2022-08-05T14:22:09.278Z,99657.75
2022-08-05T14:25:06.130Z,99672.97
2022-08-05T14:28:26.175Z,99661.41
2022-08-05T14:31:54.584Z,99658.91
2022-08-05T14:34:50.101Z,99668.47
2022-08-05T14:37:55.414Z,99660.78
2022-08-05T14:40:57.251Z,99680.28
2022-08-05T14:44:09.443Z,99677.59
2022-08-05T14:47:11.654Z,99673.59
2022-08-05T14:50:18.224Z,99676.16
2022-08-05T14:53:20.719Z,99683.50
2022-08-05T14:56:23.399Z,99695.09
2022-08-05T14:59:29.497Z,99687.34
2022-08-05T15:02:36.811Z,99694.59
2022-08-05T15:06:07.341Z,99699.63
2022-08-05T15:09:03.825Z,99704.56
2022-08-05T15:12:06.078Z,99703.44
2022-08-05T15:15:15.399Z,99710.03
2022-08-05T15:18:17.447Z,99707.78
2022-08-05T15:21:21.163Z,99706.97
2022-08-05T15:24:22.725Z,99713.44
2022-08-05T15:27:25.431Z,99715.91
2022-08-05T15:30:28.622Z,99718.47
2022-08-05T15:34:18.892Z,99730.31
2022-08-05T15:36:51.685Z,99729.81
2022-08-05T15:41:03.538Z,99738.13
2022-08-05T15:43:20.081Z,99735.75
2022-08-05T15:46:24.388Z,99739.31
2022-08-05T15:49:48.048Z,99743.88
2022-08-05T15:52:53.912Z,99747.34
2022-08-05T15:56:03.377Z,99741.13
2022-08-05T15:59:05.907Z,99753.31
2022-08-05T16:02:09.444Z,99751.53
2022-08-05T16:05:16.041Z,99759.22
2022-08-05T16:08:17.413Z,99762.19
2022-08-05T16:11:39.904Z,99751.41
2022-08-05T16:14:43.636Z,99759.72
2022-08-05T16:17:46.767Z,99765.41
2022-08-05T16:21:01.209Z,99768.34
2022-08-05T16:24:06.341Z,99772.97
2022-08-05T16:27:15.884Z,99772.44
2022-08-05T16:30:25.468Z,99778.88
2022-08-05T16:33:32.016Z,99777.25
2022-08-05T16:36:43.689Z,99785.31
2022-08-05T16:40:06.476Z,99788.31
2022-08-05T16:43:07.055Z,99779.66
2022-08-05T16:46:23.407Z,99783.22
2022-08-05T16:49:26.497Z,99783.47
2022-08-05T16:52:33.661Z,99781.59
2022-08-05T16:55:46.874Z,99782.56
2022-08-05T16:58:48.899Z,99783.06
2022-08-05T17:01:56.171Z,99787.09
2022-08-05T17:04:58.035Z,99787.19
2022-08-05T17:07:59.906Z,99774.28
2022-08-05T17:11:01.996Z,99774.78
2022-08-05T17:14:06.335Z,99775.31
2022-08-05T17:17:14.472Z,99779.63
2022-08-05T17:20:17.005Z,99783.72
2022-08-05T17:24:03.581Z,99779.94
2022-08-05T17:26:40.959Z,99780.72
2022-08-05T17:29:42.728Z,99786.38
2022-08-05T17:32:44.616Z,99792.56
2022-08-05T17:36:07.769Z,99795.53
2022-08-05T17:39:24.176Z,99794.78
2022-08-05T17:42:32.328Z,99791.00
2022-08-05T17:45:38.781Z,99784.78
2022-08-05T17:48:40.409Z,99788.53
2022-08-05T17:51:46.570Z,99791.25
2022-08-05T17:54:52.005Z,99792.31
2022-08-05T17:57:54.264Z,99797.75
2022-08-05T18:00:55.789Z,99793.13
2022-08-05T18:04:04.038Z,99797.16
2022-08-05T18:07:07.120Z,99797.72
2022-08-05T18:10:21.010Z,99808.00
2022-08-05T18:13:23.134Z,99812.28
2022-08-05T18:16:27.371Z,99813.00
2022-08-05T18:19:28.948Z,99815.44
2022-08-05T18:22:46.154Z,99805.22
2022-08-05T18:25:57.450Z,99812.31
2022-08-05T18:29:01.046Z,99817.69
2022-08-05T18:32:03.023Z,99821.41
2022-08-05T18:35:05.103Z,99821.28
2022-08-05T18:38:07.675Z,99841.22
2022-08-05T18:41:57.397Z,99873.91
2022-08-05T18:44:35.151Z,99884.97
2022-08-05T18:47:38.023Z,99896.09
2022-08-05T18:52:02.906Z,99902.97
2022-08-05T18:54:20.042Z,99906.03
2022-08-05T18:57:23.891Z,99918.06
2022-08-05T19:00:28.884Z,99933.59
2022-08-05T19:03:53.453Z,99947.03
2022-08-05T19:06:53.657Z,99949.78
2022-08-05T19:09:55.965Z,99935.69
2022-08-05T19:12:57.745Z,99953.41
2022-08-05T19:16:03.588Z,99960.84
2022-08-05T19:19:06.822Z,99967.56
2022-08-05T19:22:12.417Z,99980.13
2022-08-05T19:25:21.587Z,99985.19
2022-08-05T19:28:32.824Z,99983.78
2022-08-05T19:31:34.579Z,99993.38
2022-08-05T19:34:55.160Z,99997.81
2022-08-05T19:38:05.902Z,100008.97
2022-08-05T19:41:10.095Z,100020.84
2022-08-05T19:44:13.163Z,100031.91
2022-08-05T19:47:16.365Z,100038.75
2022-08-05T19:50:19.930Z,100035.94
2022-08-05T19:54:04.726Z,100041.84
2022-08-05T19:56:43.158Z,100051.75
2022-08-05T20:00:00.448Z,100048.53
2022-08-05T20:03:12.908Z,100048.91
2022-08-05T20:06:15.980Z,100049.56
2022-08-05T20:09:30.372Z,100066.19
2022-08-05T20:12:51.823Z,100059.63
2022-08-05T20:15:57.541Z,100070.94
2022-08-05T20:18:59.312Z,100074.78
2022-08-05T20:22:02.851Z,100076.63
2022-08-05T20:25:04.569Z,100085.09
2022-08-05T20:28:06.815Z,100103.78
2022-08-05T20:31:08.739Z,100108.03
2022-08-05T20:34:11.552Z,100103.56
2022-08-05T20:37:24.056Z,100113.66
2022-08-05T20:40:35.806Z,100106.63
2022-08-05T20:43:59.736Z,100112.78
2022-08-05T20:47:03.591Z,100110.81
2022-08-05T20:50:07.516Z,100112.22
2022-08-05T20:53:16.336Z,100121.69
2022-08-05T20:56:35.434Z,100121.09
2022-08-05T21:00:10.471Z,100129.59
2022-08-05T21:03:08.017Z,100131.59
2022-08-05T21:06:27.523Z,100135.41
2022-08-05T21:09:30.709Z,100139.16
2022-08-05T21:12:36.133Z,100144.41
2022-08-05T21:15:37.644Z,100134.63
2022-08-05T21:18:39.110Z,100141.25
2022-08-05T21:21:51.046Z,100138.16
2022-08-05T21:24:54.363Z,100144.69
2022-08-05T21:27:56.439Z,100150.19
2022-08-05T21:30:58.803Z,100145.28
2022-08-05T21:34:00.273Z,100153.56
2022-08-05T21:37:04.742Z,100148.03
2022-08-05T21:40:07.085Z,100148.41
2022-08-05T21:43:24.115Z,100144.19
2022-08-05T21:46:26.706Z,100152.78
2022-08-05T21:49:58.604Z,100161.88
2022-08-05T21:52:51.777Z,100165.78
2022-08-05T21:56:06.398Z,100162.94
2022-08-05T21:59:24.014Z,100170.13
2022-08-05T22:02:27.050Z,100174.94
2022-08-05T22:05:28.693Z,100179.59
2022-08-05T22:08:52.209Z,100181.72
2022-08-05T22:11:54.661Z,100179.00
2022-08-05T22:14:58.513Z,100180.50
2022-08-05T22:18:01.604Z,100183.38
2022-08-05T22:21:18.646Z,100184.72
2022-08-05T22:24:52.061Z,100194.00
2022-08-05T22:28:08.177Z,100192.50
2022-08-05T22:31:14.515Z,100215.81
2022-08-05T22:34:28.402Z,100217.00
2022-08-05T22:37:58.036Z,100220.47
2022-08-05T22:40:54.944Z,100230.38
2022-08-05T22:43:59.169Z,100235.22
2022-08-05T22:47:00.764Z,100238.78
2022-08-05T22:50:19.663Z,100248.00
2022-08-05T22:53:23.190Z,100241.81
2022-08-05T22:56:30.609Z,100246.81
2022-08-05T22:59:45.332Z,100244.13
2022-08-05T23:02:53.184Z,100241.44
2022-08-05T23:05:55.761Z,100242.00
2022-08-05T23:08:57.203Z,100251.06
2022-08-05T23:12:20.227Z,100239.91
2022-08-05T23:15:29.475Z,100239.94
2022-08-05T23:18:36.616Z,100239.03
2022-08-05T23:21:43.069Z,100229.00
2022-08-05T23:24:51.057Z,100245.81
2022-08-05T23:27:58.036Z,100245.09
2022-08-05T23:31:16.354Z,100247.53
2022-08-05T23:34:24.728Z,100248.91
2022-08-05T23:37:26.720Z,100246.28
2022-08-05T23:40:36.009Z,100241.34
2022-08-05T23:44:04.491Z,100239.84
2022-08-05T23:47:02.656Z,100242.16
2022-08-05T23:50:17.032Z,100237.41
2022-08-05T23:53:22.258Z,100242.59
2022-08-05T23:56:27.391Z,100239.25
